createdAt,value
2023-05-24T00:01:35.115Z,11.30
2023-05-24T00:04:08.823Z,11.20
2023-05-24T00:06:45.134Z,16.10
2023-05-24T00:09:18.859Z,12.00
2023-05-24T00:11:52.473Z,13.90
2023-05-24T00:14:26.383Z,10.40
2023-05-24T00:17:00.241Z,13.10
2023-05-24T00:19:34.525Z,12.80
2023-05-24T00:22:08.536Z,15.10
2023-05-24T00:24:42.390Z,10.50
2023-05-24T00:27:16.299Z,11.70
2023-05-24T00:29:49.983Z,12.40
2023-05-24T00:32:23.854Z,10.90
2023-05-24T00:34:57.976Z,10.70
2023-05-24T00:37:32.457Z,12.40
2023-05-24T00:40:07.027Z,10.70
2023-05-24T00:42:41.235Z,12.10
2023-05-24T00:45:16.062Z,10.40
2023-05-24T00:47:49.880Z,10.70
2023-05-24T00:50:23.753Z,11.00
2023-05-24T00:52:58.773Z,11.50
2023-05-24T00:55:33.171Z,12.80
2023-05-24T00:58:07.098Z,10.00
2023-05-24T01:00:41.721Z,12.70
2023-05-24T01:03:15.665Z,10.10
2023-05-24T01:05:50.433Z,10.70
2023-05-24T01:08:43.093Z,10.80
2023-05-24T01:11:24.709Z,12.10
2023-05-24T01:14:06.517Z,13.90
2023-05-24T01:16:52.136Z,11.00
2023-05-24T01:19:43.716Z,11.90
2023-05-24T01:22:38.423Z,12.10
2023-05-24T01:25:21.689Z,11.50
2023-05-24T01:27:56.535Z,10.10
2023-05-24T01:30:31.272Z,11.60
2023-05-24T01:33:05.369Z,12.60
2023-05-24T01:35:42.710Z,12.50
2023-05-24T01:38:16.640Z,11.70
2023-05-24T01:40:54.943Z,10.30
2023-05-24T01:43:34.176Z,10.20
2023-05-24T01:46:21.206Z,12.40
2023-05-24T01:49:21.140Z,12.80
2023-05-24T01:52:00.904Z,13.40
2023-05-24T01:54:40.051Z,12.10
2023-05-24T01:57:14.821Z,11.70
2023-05-24T01:59:49.697Z,10.50
2023-05-24T02:02:24.024Z,10.90
2023-05-24T02:05:00.915Z,11.60
2023-05-24T02:07:34.468Z,11.50
2023-05-24T02:10:10.949Z,12.10
2023-05-24T02:12:44.739Z,11.20
2023-05-24T02:15:18.879Z,10.50
2023-05-24T02:17:55.032Z,11.30
2023-05-24T02:20:31.435Z,13.00
2023-05-24T02:23:06.105Z,10.30
2023-05-24T02:25:39.709Z,12.70
2023-05-24T02:28:13.600Z,10.80
2023-05-24T02:30:47.489Z,10.20
2023-05-24T02:33:21.492Z,12.80
2023-05-24T02:35:55.200Z,9.70
2023-05-24T02:38:29.520Z,13.10
2023-05-24T02:41:02.956Z,12.20
2023-05-24T02:43:36.553Z,12.90
2023-05-24T02:46:10.806Z,11.20
2023-05-24T02:48:44.861Z,12.50
2023-05-24T02:51:18.558Z,12.10
2023-05-24T02:53:52.119Z,11.80
2023-05-24T02:56:26.941Z,10.70
2023-05-24T02:59:01.655Z,13.30
2023-05-24T03:01:36.818Z,11.50
2023-05-24T03:04:10.877Z,10.30
2023-05-24T03:06:44.979Z,12.60
2023-05-24T03:09:20.781Z,11.10
2023-05-24T03:11:55.103Z,10.40
2023-05-24T03:14:29.027Z,11.30
2023-05-24T03:17:02.620Z,11.40
2023-05-24T03:19:37.794Z,11.40
2023-05-24T03:22:11.756Z,10.70
2023-05-24T03:24:46.690Z,12.20
2023-05-24T03:27:20.543Z,10.30
2023-05-24T03:29:54.945Z,12.10
2023-05-24T03:32:30.020Z,11.90
2023-05-24T03:35:04.086Z,10.50
2023-05-24T03:37:37.618Z,10.00
2023-05-24T03:40:12.990Z,12.00
2023-05-24T03:42:56.496Z,11.10
2023-05-24T03:45:50.844Z,11.70
2023-05-24T03:48:26.034Z,12.10
2023-05-24T03:51:00.263Z,10.70
2023-05-24T03:53:33.981Z,11.90
2023-05-24T03:56:08.374Z,11.70
2023-05-24T03:58:42.188Z,11.40
2023-05-24T04:01:29.293Z,9.60
2023-05-24T04:04:07.460Z,12.00
2023-05-24T04:06:42.212Z,9.80
2023-05-24T04:09:16.161Z,10.60
2023-05-24T04:11:50.440Z,11.10
2023-05-24T04:14:24.298Z,13.20
2023-05-24T04:16:58.266Z,12.60
2023-05-24T04:19:32.464Z,9.70
2023-05-24T04:22:06.702Z,10.70
2023-05-24T04:24:43.136Z,10.10
2023-05-24T04:27:18.332Z,11.10
2023-05-24T04:29:53.533Z,11.20
2023-05-24T04:32:30.963Z,10.30
2023-05-24T04:35:05.124Z,10.50
2023-05-24T04:37:40.346Z,10.90
2023-05-24T04:40:16.699Z,11.30
2023-05-24T04:42:50.323Z,9.40
2023-05-24T04:45:24.338Z,12.30
2023-05-24T04:47:58.397Z,12.50
2023-05-24T04:50:32.432Z,9.70
2023-05-24T04:53:05.972Z,10.80
2023-05-24T04:55:39.327Z,11.10
2023-05-24T04:58:13.073Z,10.10
2023-05-24T05:00:47.361Z,11.20
2023-05-24T05:03:21.325Z,9.70
2023-05-24T05:05:55.355Z,12.20
2023-05-24T05:08:29.682Z,12.20
2023-05-24T05:11:03.674Z,11.40
2023-05-24T05:13:37.581Z,11.40
2023-05-24T05:16:11.758Z,11.90
2023-05-24T05:18:45.845Z,11.60
2023-05-24T05:21:23.421Z,10.70
2023-05-24T05:23:57.210Z,10.80
2023-05-24T05:26:31.262Z,11.70
2023-05-24T05:29:05.540Z,15.90
2023-05-24T05:31:39.995Z,13.60
2023-05-24T05:34:13.656Z,12.70
2023-05-24T05:36:47.356Z,12.30
2023-05-24T05:39:21.050Z,11.40
2023-05-24T05:41:54.802Z,13.10
2023-05-24T05:44:28.886Z,13.70
2023-05-24T05:47:04.269Z,10.90
2023-05-24T05:49:38.357Z,11.20
2023-05-24T05:52:12.569Z,10.90
2023-05-24T05:54:46.371Z,11.00
2023-05-24T05:57:24.713Z,12.20
2023-05-24T06:00:02.096Z,12.30
2023-05-24T06:02:45.843Z,10.80
2023-05-24T06:05:19.998Z,14.50
2023-05-24T06:07:54.233Z,10.90
2023-05-24T06:10:28.154Z,10.80
2023-05-24T06:13:03.185Z,13.50
2023-05-24T06:15:38.392Z,11.80
2023-05-24T06:18:13.996Z,12.70
2023-05-24T06:20:48.054Z,10.00
2023-05-24T06:23:22.080Z,13.10
2023-05-24T06:25:56.527Z,12.10
2023-05-24T06:28:38.878Z,14.20
2023-05-24T06:31:12.575Z,12.70
2023-05-24T06:33:52.516Z,11.60
2023-05-24T06:36:42.020Z,11.00
2023-05-24T06:39:16.612Z,11.50
2023-05-24T06:41:51.874Z,9.60
2023-05-24T06:44:34.922Z,12.60
2023-05-24T06:47:10.907Z,9.70
2023-05-24T06:49:44.458Z,13.90
2023-05-24T06:52:18.117Z,11.00
2023-05-24T06:54:52.548Z,12.00
2023-05-24T06:57:27.168Z,11.40
2023-05-24T07:00:01.339Z,10.30
2023-05-24T07:02:35.257Z,12.70
2023-05-24T07:05:12.816Z,8.70
2023-05-24T07:07:47.427Z,11.30
2023-05-24T07:10:21.226Z,9.90
2023-05-24T07:12:54.820Z,11.30
2023-05-24T07:15:28.470Z,12.10
2023-05-24T07:18:02.007Z,13.50
2023-05-24T07:20:36.121Z,11.30
2023-05-24T07:23:10.139Z,12.30
2023-05-24T07:25:44.264Z,10.00
2023-05-24T07:28:20.670Z,10.50
2023-05-24T07:30:54.255Z,12.80
2023-05-24T07:33:27.968Z,10.50
2023-05-24T07:36:01.763Z,14.80
2023-05-24T07:38:36.538Z,9.50
2023-05-24T07:41:11.032Z,12.30
2023-05-24T07:43:44.804Z,10.50
2023-05-24T07:46:18.716Z,13.30
2023-05-24T07:48:52.876Z,12.00
2023-05-24T07:51:26.950Z,12.10
2023-05-24T07:54:01.428Z,13.00
2023-05-24T07:56:35.276Z,10.10
2023-05-24T07:59:09.377Z,10.10
2023-05-24T08:01:43.057Z,13.10
2023-05-24T08:04:16.754Z,9.60
2023-05-24T08:06:50.342Z,11.30
2023-05-24T08:09:24.384Z,11.70
2023-05-24T08:11:58.316Z,26.30
2023-05-24T08:14:33.969Z,12.20
2023-05-24T08:17:08.026Z,13.60
2023-05-24T08:19:41.558Z,11.50
2023-05-24T08:22:16.248Z,11.40
2023-05-24T08:24:49.855Z,12.90
2023-05-24T08:27:24.079Z,12.90
2023-05-24T08:29:57.949Z,11.90
2023-05-24T08:32:32.532Z,12.50
2023-05-24T08:35:18.318Z,12.50
2023-05-24T08:37:53.481Z,11.20
2023-05-24T08:40:28.262Z,9.60
2023-05-24T08:43:03.707Z,10.70
2023-05-24T08:45:41.549Z,12.50
2023-05-24T08:48:16.362Z,9.00
2023-05-24T08:50:51.538Z,10.20
2023-05-24T08:53:26.276Z,12.70
2023-05-24T08:56:00.185Z,10.50
2023-05-24T08:58:34.729Z,10.30
2023-05-24T09:01:09.022Z,42.20
2023-05-24T09:03:45.291Z,10.60
2023-05-24T09:06:20.812Z,9.80
2023-05-24T09:08:54.874Z,11.10
2023-05-24T09:11:30.180Z,12.10
2023-05-24T09:14:04.743Z,11.80
2023-05-24T09:16:48.709Z,12.20
2023-05-24T09:19:23.376Z,15.30
2023-05-24T09:21:57.933Z,10.30
2023-05-24T09:24:31.864Z,12.60
2023-05-24T09:27:10.983Z,12.10
2023-05-24T09:29:46.646Z,12.40
2023-05-24T09:32:23.242Z,12.70
2023-05-24T09:34:59.545Z,13.60
2023-05-24T09:37:34.583Z,14.20
2023-05-24T09:40:19.852Z,11.90
2023-05-24T09:43:07.597Z,16.00
2023-05-24T09:45:47.593Z,18.20
2023-05-24T09:48:22.534Z,18.90
2023-05-24T09:51:06.225Z,17.20
2023-05-24T09:53:41.040Z,15.40
2023-05-24T09:56:15.570Z,20.30
2023-05-24T09:58:49.617Z,15.90
2023-05-24T10:01:27.262Z,22.40
2023-05-24T10:04:05.469Z,16.50
2023-05-24T10:06:43.577Z,19.30
2023-05-24T10:09:18.633Z,17.50
2023-05-24T10:11:53.658Z,15.40
2023-05-24T10:14:30.045Z,13.50
2023-05-24T10:17:04.291Z,14.00
2023-05-24T10:19:39.756Z,14.50
2023-05-24T10:22:16.260Z,13.90
2023-05-24T10:24:52.416Z,13.70
2023-05-24T10:27:31.987Z,13.20
2023-05-24T10:30:14.418Z,16.10
2023-05-24T10:32:49.604Z,14.90
2023-05-24T10:35:24.033Z,18.70
2023-05-24T10:37:58.432Z,18.20
2023-05-24T10:40:33.753Z,16.30
2023-05-24T10:43:10.239Z,14.00
2023-05-24T10:45:50.264Z,12.00
2023-05-24T10:48:44.120Z,12.90
2023-05-24T10:51:35.886Z,13.10
2023-05-24T10:54:20.680Z,13.80
2023-05-24T10:56:54.866Z,11.10
2023-05-24T10:59:38.190Z,11.70
2023-05-24T11:02:15.064Z,11.20
2023-05-24T11:04:50.859Z,12.40
2023-05-24T11:07:25.263Z,14.10
2023-05-24T11:10:08.633Z,12.90
2023-05-24T11:12:46.367Z,14.80
2023-05-24T11:15:28.023Z,13.30
2023-05-24T11:18:24.351Z,14.30
2023-05-24T11:20:58.926Z,11.70
2023-05-24T11:23:33.974Z,12.30
2023-05-24T11:26:10.462Z,12.80
2023-05-24T11:28:45.016Z,16.70
2023-05-24T11:31:32.411Z,13.50
2023-05-24T11:34:06.374Z,13.40
2023-05-24T11:36:41.498Z,12.30
2023-05-24T11:39:15.397Z,15.80
2023-05-24T11:41:51.330Z,13.70
2023-05-24T11:44:26.384Z,13.50
2023-05-24T11:47:04.547Z,10.60
2023-05-24T11:49:38.606Z,13.00
2023-05-24T11:52:12.221Z,13.90
2023-05-24T11:54:45.688Z,14.10
2023-05-24T11:57:21.157Z,12.10
2023-05-24T11:59:55.804Z,10.30
2023-05-24T12:02:31.413Z,12.20
2023-05-24T12:05:14.662Z,13.30
2023-05-24T12:07:50.114Z,10.80
2023-05-24T12:10:24.392Z,13.20
2023-05-24T12:12:58.442Z,12.30
2023-05-24T12:15:32.597Z,11.50
2023-05-24T12:18:06.501Z,11.30
2023-05-24T12:20:42.354Z,14.00
2023-05-24T12:23:19.179Z,11.90
2023-05-24T12:25:53.177Z,12.70
2023-05-24T12:28:28.034Z,12.50
2023-05-24T12:31:01.838Z,13.00
2023-05-24T12:33:36.516Z,14.80
2023-05-24T12:36:11.870Z,14.20
2023-05-24T12:38:46.298Z,12.70
2023-05-24T12:41:20.593Z,10.00
2023-05-24T12:43:55.157Z,13.90
2023-05-24T12:46:29.549Z,13.70
2023-05-24T12:49:05.578Z,12.20
2023-05-24T12:51:39.199Z,12.30
2023-05-24T12:54:13.186Z,12.60
2023-05-24T12:56:46.929Z,10.90
2023-05-24T12:59:20.610Z,12.60
2023-05-24T13:01:54.661Z,15.20
2023-05-24T13:04:28.538Z,13.90
2023-05-24T13:07:03.445Z,10.50
2023-05-24T13:09:37.091Z,12.40
2023-05-24T13:12:12.924Z,13.90
2023-05-24T13:14:46.528Z,13.20
2023-05-24T13:17:20.655Z,12.90
2023-05-24T13:19:55.110Z,13.10
2023-05-24T13:22:29.177Z,14.90
2023-05-24T13:25:03.333Z,13.50
2023-05-24T13:27:37.885Z,15.00
2023-05-24T13:30:13.965Z,13.00
2023-05-24T13:32:47.887Z,12.80
2023-05-24T13:35:25.920Z,11.60
2023-05-24T13:37:59.632Z,14.70
2023-05-24T13:40:33.875Z,15.60
2023-05-24T13:43:07.590Z,13.90
2023-05-24T13:45:42.039Z,13.20
2023-05-24T13:48:15.980Z,17.60
2023-05-24T13:50:49.794Z,10.70
2023-05-24T13:53:23.935Z,12.90
2023-05-24T13:55:57.629Z,15.00
2023-05-24T13:58:31.899Z,14.50
2023-05-24T14:01:06.267Z,15.20
2023-05-24T14:03:42.257Z,12.10
2023-05-24T14:06:16.920Z,18.10
2023-05-24T14:08:51.079Z,18.30
2023-05-24T14:11:25.207Z,13.80
2023-05-24T14:16:37.328Z,15.80
2023-05-24T14:19:11.267Z,16.80
2023-05-24T14:21:45.257Z,15.50
2023-05-24T14:24:19.539Z,11.20
2023-05-24T14:26:53.295Z,12.70
2023-05-24T14:29:27.259Z,9.80
2023-05-24T14:32:00.833Z,9.10
2023-05-24T14:34:34.913Z,9.90
2023-05-24T14:37:09.864Z,9.80
2023-05-24T14:39:43.712Z,10.20
2023-05-24T14:42:17.392Z,11.50
2023-05-24T14:44:51.589Z,10.80
2023-05-24T14:47:25.667Z,11.90
2023-05-24T14:49:59.362Z,12.90
2023-05-24T14:52:33.136Z,14.20
2023-05-24T14:55:08.835Z,14.30
2023-05-24T14:57:43.812Z,12.30
2023-05-24T15:00:22.472Z,16.10
2023-05-24T15:02:57.409Z,12.20
2023-05-24T15:05:31.713Z,14.20
2023-05-24T15:08:06.219Z,11.10
2023-05-24T15:10:41.315Z,10.90
2023-05-24T15:13:15.753Z,15.30
2023-05-24T15:15:49.342Z,18.40
2023-05-24T15:18:26.459Z,17.50
2023-05-24T15:21:00.466Z,17.10
2023-05-24T15:23:34.733Z,22.50
2023-05-24T15:26:08.557Z,19.80
2023-05-24T15:28:42.460Z,17.00
2023-05-24T15:31:16.696Z,17.90
2023-05-24T15:33:50.629Z,17.90
2023-05-24T15:36:24.578Z,17.10
2023-05-24T15:39:01.347Z,18.80
2023-05-24T15:41:35.413Z,18.60
2023-05-24T15:44:10.206Z,20.40
2023-05-24T15:46:44.281Z,22.20
2023-05-24T15:49:18.237Z,19.00
2023-05-24T15:54:29.668Z,22.40
2023-05-24T15:57:04.106Z,16.50
2023-05-24T15:59:38.974Z,24.60
2023-05-24T16:02:13.475Z,17.10
2023-05-24T16:04:47.349Z,18.10
2023-05-24T16:07:21.217Z,18.80
2023-05-24T16:09:55.394Z,20.70
2023-05-24T16:12:30.228Z,18.40
2023-05-24T16:15:05.538Z,15.90
2023-05-24T16:17:40.040Z,17.50
2023-05-24T16:20:14.354Z,16.20
2023-05-24T16:22:52.028Z,18.30
2023-05-24T16:25:26.258Z,16.30
2023-05-24T16:28:01.025Z,19.60
2023-05-24T16:30:34.950Z,17.50
2023-05-24T16:33:09.512Z,16.40
2023-05-24T16:35:43.678Z,15.70
2023-05-24T16:38:18.945Z,17.40
2023-05-24T16:40:52.874Z,15.80
2023-05-24T16:43:27.028Z,15.50
2023-05-24T16:46:00.681Z,17.80
2023-05-24T16:48:34.509Z,16.80
2023-05-24T16:51:08.536Z,16.60
2023-05-24T16:53:42.153Z,16.10
2023-05-24T16:56:16.381Z,16.80
2023-05-24T16:58:50.778Z,16.70
2023-05-24T17:01:24.830Z,21.30
2023-05-24T17:03:59.054Z,19.70
2023-05-24T17:06:33.165Z,16.00
2023-05-24T17:09:07.407Z,16.50
2023-05-24T17:11:41.800Z,15.60
2023-05-24T17:14:16.089Z,17.90
2023-05-24T17:16:49.750Z,16.10
2023-05-24T17:19:25.660Z,15.40
2023-05-24T17:21:59.751Z,15.90
2023-05-24T17:24:34.101Z,16.50
2023-05-24T17:27:08.234Z,18.20
2023-05-24T17:29:41.940Z,14.70
2023-05-24T17:32:15.913Z,18.00
2023-05-24T17:34:49.907Z,14.80
2023-05-24T17:37:23.788Z,15.30
2023-05-24T17:40:00.868Z,17.10
2023-05-24T17:42:35.051Z,18.70
2023-05-24T17:45:10.634Z,17.50
2023-05-24T17:47:44.577Z,14.70
2023-05-24T17:50:18.549Z,19.90
2023-05-24T17:52:52.618Z,15.60
2023-05-24T17:55:26.834Z,17.20
2023-05-24T17:58:00.584Z,15.40
2023-05-24T18:00:34.509Z,15.40
2023-05-24T18:03:09.014Z,16.90
2023-05-24T18:05:43.445Z,15.60
2023-05-24T18:08:17.579Z,20.00
2023-05-24T18:10:51.313Z,17.20
2023-05-24T18:13:24.971Z,15.50
2023-05-24T18:15:59.066Z,19.80
2023-05-24T18:18:33.268Z,21.50
2023-05-24T18:21:07.748Z,18.50
2023-05-24T18:23:41.941Z,16.80
2023-05-24T18:26:15.732Z,19.20
2023-05-24T18:28:49.682Z,15.60
2023-05-24T18:31:23.473Z,16.80
2023-05-24T18:33:59.460Z,15.80
2023-05-24T18:36:35.173Z,20.70
2023-05-24T18:39:09.266Z,18.90
2023-05-24T18:41:43.069Z,16.80
2023-05-24T18:44:17.493Z,16.60
2023-05-24T18:46:55.897Z,15.60
2023-05-24T18:49:30.378Z,16.60
2023-05-24T18:52:05.328Z,17.50
2023-05-24T18:54:39.483Z,17.60
2023-05-24T18:57:13.177Z,18.70
2023-05-24T18:59:56.288Z,17.10
2023-05-24T19:02:30.203Z,15.10
2023-05-24T19:05:04.469Z,17.50
2023-05-24T19:07:38.869Z,19.90
2023-05-24T19:10:14.266Z,16.40
2023-05-24T19:12:48.079Z,18.40
2023-05-24T19:15:22.217Z,17.00
2023-05-24T19:17:58.098Z,16.10
2023-05-24T19:20:31.927Z,16.60
2023-05-24T19:23:06.070Z,16.50
2023-05-24T19:25:42.289Z,16.00
2023-05-24T19:28:16.649Z,18.00
2023-05-24T19:30:50.820Z,20.80
2023-05-24T19:33:24.389Z,21.30
2023-05-24T19:35:58.060Z,16.80
2023-05-24T19:38:31.891Z,16.70
2023-05-24T19:41:06.439Z,17.00
2023-05-24T19:43:40.467Z,16.90
2023-05-24T19:46:15.035Z,19.30
2023-05-24T19:48:49.030Z,15.90
2023-05-24T19:51:23.213Z,16.70
2023-05-24T19:53:56.974Z,18.30
2023-05-24T19:56:30.885Z,20.70
2023-05-24T19:59:04.558Z,17.00
2023-05-24T20:01:38.615Z,19.60
2023-05-24T20:04:13.001Z,18.30
2023-05-24T20:06:47.426Z,17.80
2023-05-24T20:09:21.433Z,17.20
2023-05-24T20:11:55.633Z,18.80
2023-05-24T20:14:31.903Z,19.60
2023-05-24T20:17:07.000Z,22.00
2023-05-24T20:19:40.628Z,19.60
2023-05-24T20:22:16.683Z,20.60
2023-05-24T20:24:50.648Z,19.90
2023-05-24T20:27:24.700Z,18.80
2023-05-24T20:29:58.239Z,21.70
2023-05-24T20:32:33.049Z,22.30
2023-05-24T20:35:08.876Z,18.40
2023-05-24T20:37:43.040Z,17.20
2023-05-24T20:40:22.382Z,21.90
2023-05-24T20:42:56.687Z,19.30
2023-05-24T20:45:30.407Z,16.20
2023-05-24T20:48:04.897Z,21.30
2023-05-24T20:50:38.520Z,21.40
2023-05-24T20:53:12.326Z,20.30
2023-05-24T20:55:46.725Z,19.10
2023-05-24T20:58:21.105Z,19.90
2023-05-24T21:00:54.857Z,20.20
2023-05-24T21:03:29.528Z,19.50
2023-05-24T21:06:03.326Z,18.90
2023-05-24T21:08:37.308Z,19.00
2023-05-24T21:11:11.606Z,19.50
2023-05-24T21:13:45.618Z,19.70
2023-05-24T21:16:19.929Z,20.50
2023-05-24T21:18:54.287Z,17.60
2023-05-24T21:21:28.220Z,20.00
2023-05-24T21:24:01.992Z,20.20
2023-05-24T21:26:35.782Z,19.60
2023-05-24T21:29:11.816Z,19.60
2023-05-24T21:31:45.608Z,18.40
2023-05-24T21:34:19.452Z,19.60
2023-05-24T21:36:53.253Z,19.30
2023-05-24T21:39:27.584Z,20.30
2023-05-24T21:42:02.541Z,19.30
2023-05-24T21:44:36.136Z,19.50
2023-05-24T21:47:10.448Z,19.60
2023-05-24T21:49:43.965Z,19.90
2023-05-24T21:52:17.645Z,21.10
2023-05-24T21:54:51.261Z,20.30
2023-05-24T21:57:26.519Z,19.90
2023-05-24T22:00:00.847Z,19.90
2023-05-24T22:02:35.519Z,19.60
2023-05-24T22:05:09.887Z,19.00
2023-05-24T22:07:43.626Z,19.20
2023-05-24T22:10:17.563Z,23.30
2023-05-24T22:12:51.473Z,22.80
2023-05-24T22:15:25.706Z,21.70
2023-05-24T22:18:01.816Z,21.00
2023-05-24T22:20:36.977Z,22.80
2023-05-24T22:23:11.318Z,23.00
2023-05-24T22:25:45.295Z,20.80
2023-05-24T22:28:20.518Z,19.70
2023-05-24T22:30:54.519Z,20.40
2023-05-24T22:33:28.174Z,22.10
2023-05-24T22:36:02.402Z,24.10
2023-05-24T22:38:36.537Z,21.60
2023-05-24T22:41:10.463Z,22.80
2023-05-24T22:43:44.065Z,22.60
2023-05-24T22:46:17.778Z,22.40
2023-05-24T22:48:53.870Z,22.30
2023-05-24T22:51:27.604Z,21.00
2023-05-24T22:54:01.280Z,25.70
2023-05-24T22:56:36.442Z,22.70
2023-05-24T22:59:10.680Z,21.80
2023-05-24T23:01:45.134Z,22.90
2023-05-24T23:04:21.548Z,19.80
2023-05-24T23:06:57.121Z,21.30
2023-05-24T23:09:35.342Z,20.70
2023-05-24T23:12:10.892Z,23.00
2023-05-24T23:14:46.805Z,25.80
2023-05-24T23:17:24.371Z,22.50
2023-05-24T23:19:59.530Z,21.60
2023-05-24T23:22:33.050Z,24.10
2023-05-24T23:25:08.444Z,24.10
2023-05-24T23:27:42.932Z,26.30
2023-05-24T23:30:17.087Z,25.20
2023-05-24T23:32:50.884Z,24.00
2023-05-24T23:35:25.326Z,26.00
2023-05-24T23:37:58.878Z,21.00
2023-05-24T23:40:32.803Z,23.10
2023-05-24T23:43:06.936Z,21.90
2023-05-24T23:45:41.049Z,21.60
2023-05-24T23:48:15.409Z,24.20
2023-05-24T23:50:54.460Z,24.30
2023-05-24T23:53:28.588Z,23.40
2023-05-24T23:56:02.214Z,26.40
2023-05-24T23:58:37.913Z,25.70
